createdAt,value
2023-04-07T00:00:08.462Z,20.83
2023-04-07T00:02:38.698Z,21.83
2023-04-07T00:05:09.088Z,20.17
2023-04-07T00:07:52.377Z,19.98
2023-04-07T00:10:27.610Z,23.40
2023-04-07T00:12:58.533Z,19.83
2023-04-07T00:15:28.974Z,23.25
2023-04-07T00:17:59.447Z,23.02
2023-04-07T00:20:29.799Z,28.20
2023-04-07T00:22:59.938Z,25.73
2023-04-07T00:25:30.178Z,29.05
2023-04-07T00:28:00.724Z,27.45
2023-04-07T00:30:30.911Z,25.88
2023-04-07T00:33:04.039Z,26.38
2023-04-07T00:35:34.302Z,19.02
2023-04-07T00:38:04.522Z,23.55
2023-04-07T00:40:34.721Z,24.77
2023-04-07T00:43:04.897Z,24.00
2023-04-07T00:45:37.336Z,23.13
2023-04-07T00:48:07.854Z,23.58
2023-04-07T00:50:38.015Z,23.05
2023-04-07T00:53:09.117Z,25.92
2023-04-07T00:55:39.626Z,25.10
2023-04-07T00:58:09.772Z,22.13
2023-04-07T01:01:15.969Z,23.30
2023-04-07T01:04:17.718Z,24.58
2023-04-07T01:06:59.403Z,23.27
2023-04-07T01:09:50.105Z,23.48
2023-04-07T01:12:59.093Z,24.15
2023-04-07T01:15:34.507Z,21.00
2023-04-07T01:18:19.960Z,20.05
2023-04-07T01:21:03.591Z,22.70
2023-04-07T01:24:07.566Z,22.65
2023-04-07T01:26:40.694Z,18.27
2023-04-07T01:29:47.893Z,21.08
2023-04-07T01:32:21.415Z,22.30
2023-04-07T01:34:57.605Z,18.92
2023-04-07T01:37:30.049Z,26.42
2023-04-07T01:40:00.270Z,22.17
2023-04-07T01:42:34.805Z,21.35
2023-04-07T01:45:07.987Z,20.90
2023-04-07T01:47:40.631Z,23.08
2023-04-07T01:50:13.552Z,24.45
2023-04-07T01:52:44.624Z,23.35
2023-04-07T01:55:15.324Z,24.50
2023-04-07T01:57:45.737Z,23.98
2023-04-07T02:00:16.584Z,22.00
2023-04-07T02:02:58.359Z,23.95
2023-04-07T02:05:34.556Z,23.70
2023-04-07T02:08:10.319Z,21.92
2023-04-07T02:10:39.726Z,24.20
2023-04-07T02:13:17.034Z,22.10
2023-04-07T02:15:51.688Z,19.38
2023-04-07T02:18:27.366Z,26.73
2023-04-07T02:21:00.893Z,25.42
2023-04-07T02:23:31.798Z,22.45
2023-04-07T02:26:02.026Z,21.88
2023-04-07T02:28:32.233Z,24.73
2023-04-07T02:31:02.469Z,29.52
2023-04-07T02:33:32.716Z,22.42
2023-04-07T02:36:01.224Z,25.27
2023-04-07T02:38:29.398Z,25.08
2023-04-07T02:40:58.891Z,21.98
2023-04-07T02:43:26.664Z,25.77
2023-04-07T02:45:55.330Z,24.73
2023-04-07T02:48:23.078Z,23.08
2023-04-07T02:50:51.592Z,24.42
2023-04-07T02:53:19.976Z,23.73
2023-04-07T02:55:48.324Z,24.20
2023-04-07T02:58:16.798Z,27.00
2023-04-07T03:00:45.142Z,23.85
2023-04-07T03:03:13.654Z,27.40
2023-04-07T03:05:42.053Z,23.23
2023-04-07T03:08:12.812Z,23.02
2023-04-07T03:10:41.826Z,23.70
2023-04-07T03:13:10.420Z,22.15
2023-04-07T03:15:40.816Z,27.63
2023-04-07T03:18:11.749Z,27.17
2023-04-07T03:20:42.600Z,34.38
2023-04-07T03:23:13.286Z,28.67
2023-04-07T03:25:45.072Z,33.17
2023-04-07T03:28:16.245Z,27.35
2023-04-07T03:30:46.454Z,22.55
2023-04-07T03:33:16.663Z,23.40
2023-04-07T03:35:46.840Z,21.73
2023-04-07T03:38:17.142Z,25.90
2023-04-07T03:40:47.323Z,22.63
2023-04-07T03:43:17.677Z,22.35
2023-04-07T03:45:48.073Z,22.17
2023-04-07T03:48:18.596Z,23.17
2023-04-07T03:50:48.730Z,23.95
2023-04-07T03:53:19.661Z,24.05
2023-04-07T03:55:50.846Z,24.75
2023-04-07T03:58:21.469Z,22.55
2023-04-07T04:00:51.689Z,21.00
2023-04-07T04:03:21.957Z,25.40
2023-04-07T04:05:52.416Z,26.23
2023-04-07T04:08:22.601Z,21.00
2023-04-07T04:10:52.900Z,24.13
2023-04-07T04:13:23.158Z,23.77
2023-04-07T04:15:53.385Z,18.83
2023-04-07T04:18:23.623Z,24.45
2023-04-07T04:20:53.997Z,19.67
2023-04-07T04:23:24.138Z,21.88
2023-04-07T04:25:54.357Z,22.10
2023-04-07T04:28:24.508Z,22.75
2023-04-07T04:30:54.644Z,22.58
2023-04-07T04:33:24.932Z,23.73
2023-04-07T04:35:55.122Z,25.88
2023-04-07T04:38:25.474Z,22.15
2023-04-07T04:40:55.668Z,25.75
2023-04-07T04:43:25.958Z,24.25
2023-04-07T04:45:57.260Z,24.35
2023-04-07T04:48:27.548Z,22.65
2023-04-07T04:50:57.664Z,21.75
2023-04-07T04:53:27.819Z,19.63
2023-04-07T04:55:58.020Z,21.85
2023-04-07T04:58:28.198Z,25.23
2023-04-07T05:00:59.745Z,19.63
2023-04-07T05:03:30.453Z,21.05
2023-04-07T05:06:00.869Z,19.17
2023-04-07T05:08:31.362Z,23.00
2023-04-07T05:11:01.669Z,20.67
2023-04-07T05:13:31.913Z,21.15
2023-04-07T05:16:02.034Z,23.65
2023-04-07T05:18:32.453Z,20.75
2023-04-07T05:21:02.580Z,19.23
2023-04-07T05:23:32.681Z,24.20
2023-04-07T05:26:02.978Z,21.52
2023-04-07T05:28:33.102Z,19.42
2023-04-07T05:31:04.175Z,19.00
2023-04-07T05:33:34.823Z,21.52
2023-04-07T05:36:03.484Z,20.00
2023-04-07T05:38:31.493Z,19.85
2023-04-07T05:40:59.888Z,22.80
2023-04-07T05:43:28.350Z,23.38
2023-04-07T05:45:58.190Z,21.38
2023-04-07T05:48:28.254Z,19.42
2023-04-07T05:50:56.591Z,19.73
2023-04-07T05:53:25.004Z,24.27
2023-04-07T05:55:53.365Z,20.80
2023-04-07T05:58:21.821Z,19.90
2023-04-07T06:00:51.045Z,18.90
2023-04-07T06:03:19.065Z,18.70
2023-04-07T06:05:50.642Z,18.02
2023-04-07T06:08:20.817Z,20.00
2023-04-07T06:10:50.921Z,19.73
2023-04-07T06:13:21.245Z,23.13
2023-04-07T06:15:51.483Z,26.33
2023-04-07T06:18:21.584Z,19.20
2023-04-07T06:20:51.761Z,19.02
2023-04-07T06:23:22.195Z,17.35
2023-04-07T06:25:53.419Z,24.05
2023-04-07T06:28:23.684Z,18.30
2023-04-07T06:30:53.915Z,25.48
2023-04-07T06:33:25.898Z,27.00
2023-04-07T06:35:56.686Z,22.90
2023-04-07T06:38:24.789Z,18.83
2023-04-07T06:40:52.870Z,22.50
2023-04-07T06:43:21.322Z,20.90
2023-04-07T06:45:49.734Z,18.48
2023-04-07T06:48:18.116Z,23.10
2023-04-07T06:50:53.064Z,23.42
2023-04-07T06:53:23.251Z,20.23
2023-04-07T06:56:13.281Z,17.88
2023-04-07T06:58:43.581Z,21.10
2023-04-07T07:01:13.740Z,22.13
2023-04-07T07:03:43.932Z,20.33
2023-04-07T07:06:14.195Z,23.08
2023-04-07T07:08:44.363Z,20.58
2023-04-07T07:11:15.022Z,18.55
2023-04-07T07:13:45.569Z,22.30
2023-04-07T07:16:15.993Z,21.75
2023-04-07T07:18:46.246Z,18.83
2023-04-07T07:21:19.512Z,20.80
2023-04-07T07:23:50.003Z,16.50
2023-04-07T07:26:20.996Z,14.18
2023-04-07T07:28:51.165Z,21.77
2023-04-07T07:31:21.404Z,18.90
2023-04-07T07:33:52.090Z,18.45
2023-04-07T07:36:22.281Z,17.85
2023-04-07T07:38:52.819Z,20.95
2023-04-07T07:41:22.961Z,20.02
2023-04-07T07:43:53.243Z,19.98
2023-04-07T07:46:26.341Z,18.23
2023-04-07T07:48:56.539Z,17.80
2023-04-07T07:51:28.217Z,21.60
2023-04-07T07:53:58.440Z,21.08
2023-04-07T07:56:28.989Z,18.48
2023-04-07T07:58:59.407Z,20.77
2023-04-07T08:01:29.647Z,22.20
2023-04-07T08:03:59.943Z,19.17
2023-04-07T08:06:31.684Z,22.30
2023-04-07T08:09:01.834Z,17.10
2023-04-07T08:11:31.927Z,18.70
2023-04-07T08:14:02.031Z,19.58
2023-04-07T08:16:32.092Z,18.92
2023-04-07T08:19:02.384Z,19.90
2023-04-07T08:21:32.880Z,19.73
2023-04-07T08:24:03.172Z,21.83
2023-04-07T08:26:33.824Z,18.92
2023-04-07T08:29:04.014Z,18.50
2023-04-07T08:31:34.256Z,15.35
2023-04-07T08:34:02.560Z,16.88
2023-04-07T08:36:32.404Z,14.60
2023-04-07T08:39:04.546Z,17.08
2023-04-07T08:41:41.625Z,13.90
2023-04-07T08:44:11.728Z,18.83
2023-04-07T08:46:44.071Z,16.55
2023-04-07T08:49:15.686Z,17.73
2023-04-07T08:51:48.672Z,15.88
2023-04-07T08:54:19.346Z,12.73
2023-04-07T08:56:50.867Z,16.13
2023-04-07T08:59:25.426Z,17.55
2023-04-07T09:01:55.640Z,14.00
2023-04-07T09:04:27.758Z,12.15
2023-04-07T09:06:57.147Z,12.00
2023-04-07T09:09:24.598Z,10.23
2023-04-07T09:11:54.592Z,8.30
2023-04-07T09:14:24.675Z,10.20
2023-04-07T09:16:56.561Z,9.25
2023-04-07T09:19:28.390Z,10.00
2023-04-07T09:21:57.518Z,10.02
2023-04-07T09:27:19.555Z,13.95
2023-04-07T09:29:49.724Z,8.90
2023-04-07T09:32:44.004Z,12.45
2023-04-07T09:35:13.934Z,18.30
2023-04-07T09:37:44.901Z,12.45
2023-04-07T09:40:27.764Z,11.82
2023-04-07T09:42:58.807Z,13.50
2023-04-07T09:45:35.817Z,11.98
2023-04-07T09:48:21.973Z,12.90
2023-04-07T09:50:52.257Z,12.18
2023-04-07T09:53:43.611Z,13.07
2023-04-07T09:56:22.594Z,10.90
2023-04-07T09:58:53.473Z,16.65
2023-04-07T10:01:23.577Z,11.98
2023-04-07T10:03:56.406Z,22.25
2023-04-07T10:06:25.705Z,11.32
2023-04-07T10:08:54.419Z,11.63
2023-04-07T10:11:24.471Z,13.77
2023-04-07T10:13:54.310Z,10.00
2023-04-07T10:16:25.911Z,12.07
2023-04-07T10:18:56.663Z,12.98
2023-04-07T10:21:27.889Z,11.02
2023-04-07T10:24:16.019Z,10.23
2023-04-07T10:26:58.140Z,9.82
2023-04-07T10:29:39.859Z,10.32
2023-04-07T10:32:11.230Z,18.38
2023-04-07T10:34:56.048Z,8.95
2023-04-07T10:37:26.810Z,10.60
2023-04-07T10:40:21.782Z,8.93
2023-04-07T10:42:52.040Z,13.50
2023-04-07T10:45:52.432Z,11.35
2023-04-07T10:48:23.604Z,9.55
2023-04-07T10:51:16.041Z,8.52
2023-04-07T10:54:23.362Z,6.72
2023-04-07T10:57:15.119Z,6.00
2023-04-07T11:00:10.726Z,11.32
2023-04-07T11:02:41.766Z,9.05
2023-04-07T11:05:23.239Z,11.30
2023-04-07T11:07:59.501Z,13.07
2023-04-07T11:10:27.889Z,13.27
2023-04-07T11:13:07.865Z,20.98
2023-04-07T11:15:40.701Z,8.65
2023-04-07T11:18:17.508Z,8.98
2023-04-07T11:20:53.729Z,9.70
2023-04-07T11:23:25.669Z,8.90
2023-04-07T11:26:03.605Z,8.88
2023-04-07T11:28:34.129Z,13.87
2023-04-07T11:31:05.018Z,12.00
2023-04-07T11:33:37.188Z,9.55
2023-04-07T11:36:08.072Z,15.73
2023-04-07T11:38:39.503Z,15.60
2023-04-07T11:41:16.808Z,11.13
2023-04-07T11:43:46.705Z,8.52
2023-04-07T11:46:19.503Z,30.55
2023-04-07T11:48:49.449Z,10.02
2023-04-07T11:51:28.219Z,46.20
2023-04-07T11:53:58.070Z,11.77
2023-04-07T11:56:28.306Z,86.65
2023-04-07T11:58:59.335Z,14.77
2023-04-07T12:01:42.137Z,11.63
2023-04-07T12:04:16.228Z,21.42
2023-04-07T12:06:48.828Z,12.88
2023-04-07T12:09:38.477Z,19.92
2023-04-07T12:12:14.780Z,14.10
2023-04-07T12:14:44.984Z,12.98
2023-04-07T12:17:27.395Z,15.80
2023-04-07T12:19:57.614Z,16.98
2023-04-07T12:22:28.558Z,15.57
2023-04-07T12:24:58.845Z,16.67
2023-04-07T12:27:39.927Z,22.05
2023-04-07T12:30:14.176Z,25.92
2023-04-07T12:32:44.429Z,23.65
2023-04-07T12:35:14.586Z,22.67
2023-04-07T12:37:48.401Z,23.45
2023-04-07T12:40:20.143Z,23.08
2023-04-07T12:42:50.508Z,25.85
2023-04-07T12:45:20.791Z,21.25
2023-04-07T12:47:51.166Z,20.05
2023-04-07T12:50:21.457Z,20.92
2023-04-07T12:52:53.701Z,20.95
2023-04-07T12:55:23.964Z,19.65
2023-04-07T12:57:55.447Z,19.27
2023-04-07T13:00:26.111Z,19.08
2023-04-07T13:02:56.952Z,18.17
2023-04-07T13:05:27.586Z,17.40
2023-04-07T13:07:57.855Z,21.50
2023-04-07T13:10:28.020Z,24.17
2023-04-07T13:12:58.281Z,22.13
2023-04-07T13:15:29.224Z,20.30
2023-04-07T13:17:59.778Z,20.30
2023-04-07T13:20:30.649Z,22.40
2023-04-07T13:23:07.078Z,19.77
2023-04-07T13:28:09.900Z,23.40
2023-04-07T13:30:40.206Z,22.08
2023-04-07T13:33:08.744Z,22.23
2023-04-07T13:35:36.894Z,23.55
2023-04-07T13:38:05.753Z,23.75
2023-04-07T13:40:33.747Z,23.00
2023-04-07T13:43:02.162Z,22.13
2023-04-07T13:45:30.699Z,22.88
2023-04-07T13:47:59.303Z,24.40
2023-04-07T13:50:27.613Z,20.48
2023-04-07T13:52:55.947Z,15.90
2023-04-07T13:55:24.282Z,14.15
2023-04-07T13:57:53.334Z,18.20
2023-04-07T14:00:21.477Z,16.63
2023-04-07T14:02:49.861Z,12.75
2023-04-07T14:05:18.274Z,11.75
2023-04-07T14:07:47.548Z,12.45
2023-04-07T14:10:15.551Z,10.00
2023-04-07T14:12:43.477Z,10.25
2023-04-07T14:15:12.201Z,12.32
2023-04-07T14:17:40.669Z,10.88
2023-04-07T14:20:09.746Z,10.98
2023-04-07T14:22:37.190Z,11.68
2023-04-07T14:25:06.724Z,10.38
2023-04-07T14:27:34.094Z,10.55
2023-04-07T14:30:02.962Z,11.63
2023-04-07T14:32:33.014Z,12.25
2023-04-07T14:35:02.774Z,10.75
2023-04-07T14:37:30.843Z,12.48
2023-04-07T14:40:03.065Z,11.00
2023-04-07T14:42:33.651Z,9.45
2023-04-07T14:45:04.684Z,12.07
2023-04-07T14:47:34.773Z,12.32
2023-04-07T14:50:05.166Z,13.02
2023-04-07T14:52:35.323Z,10.35
2023-04-07T14:55:05.873Z,12.57
2023-04-07T14:57:35.988Z,12.90
2023-04-07T15:00:07.713Z,10.98
2023-04-07T15:02:38.169Z,12.57
2023-04-07T15:05:09.415Z,11.30
2023-04-07T15:07:39.584Z,14.05
2023-04-07T15:10:08.515Z,15.30
2023-04-07T15:12:36.332Z,11.52
2023-04-07T15:15:05.835Z,12.55
2023-04-07T15:17:42.602Z,13.35
2023-04-07T15:20:14.229Z,13.23
2023-04-07T15:22:44.035Z,12.88
2023-04-07T15:25:13.833Z,11.27
2023-04-07T15:27:43.489Z,14.63
2023-04-07T15:30:13.739Z,15.10
2023-04-07T15:32:58.743Z,11.40
2023-04-07T15:35:28.463Z,13.38
2023-04-07T15:37:58.176Z,12.20
2023-04-07T15:40:27.912Z,10.98
2023-04-07T15:42:57.730Z,12.45
2023-04-07T15:45:27.714Z,14.07
2023-04-07T15:47:57.560Z,10.43
2023-04-07T15:50:30.036Z,11.75
2023-04-07T15:53:00.356Z,13.70
2023-04-07T15:55:30.355Z,15.05
2023-04-07T15:58:00.898Z,12.85
2023-04-07T16:00:36.066Z,17.15
2023-04-07T16:03:05.480Z,13.00
2023-04-07T16:05:35.473Z,13.88
2023-04-07T16:08:05.933Z,14.80
2023-04-07T16:10:35.694Z,14.10
2023-04-07T16:13:05.704Z,14.10
2023-04-07T16:15:40.808Z,11.90
2023-04-07T16:18:14.773Z,10.38
2023-04-07T16:20:44.754Z,10.77
2023-04-07T16:23:14.521Z,11.60
2023-04-07T16:25:44.375Z,12.02
2023-04-07T16:28:14.101Z,15.52
2023-04-07T16:30:43.877Z,13.05
2023-04-07T16:33:13.742Z,12.77
2023-04-07T16:35:43.587Z,11.13
2023-04-07T16:38:13.484Z,12.35
2023-04-07T16:41:02.600Z,11.55
2023-04-07T16:43:31.991Z,10.63
2023-04-07T16:46:02.231Z,16.50
2023-04-07T16:48:30.578Z,11.10
2023-04-07T16:50:59.020Z,12.13
2023-04-07T16:53:27.377Z,17.27
2023-04-07T16:55:56.033Z,14.15
2023-04-07T16:58:24.347Z,11.30
2023-04-07T17:00:52.746Z,11.55
2023-04-07T17:03:21.265Z,15.55
2023-04-07T17:05:51.606Z,13.10
2023-04-07T17:08:21.356Z,14.35
2023-04-07T17:10:49.283Z,12.25
2023-04-07T17:13:17.768Z,11.68
2023-04-07T17:15:46.874Z,10.38
2023-04-07T17:18:14.771Z,11.73
2023-04-07T17:20:43.152Z,9.55
2023-04-07T17:23:11.761Z,12.27
2023-04-07T17:25:41.075Z,10.45
2023-04-07T17:28:11.272Z,10.93
2023-04-07T17:30:41.635Z,14.25
2023-04-07T17:33:12.397Z,14.32
2023-04-07T17:35:42.629Z,15.18
2023-04-07T17:38:12.511Z,13.40
2023-04-07T17:40:42.732Z,15.88
2023-04-07T17:43:13.182Z,13.80
2023-04-07T17:45:42.551Z,12.02
2023-04-07T17:48:12.559Z,12.52
2023-04-07T17:50:43.530Z,11.95
2023-04-07T17:53:13.577Z,13.43
2023-04-07T17:55:43.693Z,12.77
2023-04-07T17:58:13.656Z,15.18
2023-04-07T18:00:43.506Z,13.57
2023-04-07T18:03:14.738Z,14.32
2023-04-07T18:05:46.409Z,14.02
2023-04-07T18:08:16.326Z,14.82
2023-04-07T18:10:44.629Z,14.25
2023-04-07T18:13:12.930Z,12.88
2023-04-07T18:15:41.567Z,15.52
2023-04-07T18:18:09.895Z,13.18
2023-04-07T18:20:38.712Z,16.00
2023-04-07T18:23:06.889Z,12.93
2023-04-07T18:25:35.234Z,12.38
2023-04-07T18:28:04.126Z,15.45
2023-04-07T18:30:32.172Z,12.05
2023-04-07T18:33:02.181Z,11.07
2023-04-07T18:35:32.203Z,10.60
2023-04-07T18:38:04.678Z,11.80
2023-04-07T18:40:35.556Z,11.20
2023-04-07T18:43:06.052Z,9.73
2023-04-07T18:45:37.083Z,10.02
2023-04-07T18:48:07.467Z,11.00
2023-04-07T18:50:37.584Z,9.55
2023-04-07T18:53:07.485Z,10.15
2023-04-07T18:55:37.674Z,10.88
2023-04-07T18:58:08.614Z,10.00
2023-04-07T19:00:38.737Z,12.20
2023-04-07T19:03:09.097Z,11.20
2023-04-07T19:05:40.059Z,9.32
2023-04-07T19:08:11.331Z,7.40
2023-04-07T19:10:40.274Z,10.65
2023-04-07T19:13:10.043Z,9.57
2023-04-07T19:15:40.923Z,10.48
2023-04-07T19:18:11.420Z,9.10
2023-04-07T19:20:41.731Z,12.60
2023-04-07T19:23:11.408Z,11.55
2023-04-07T19:25:44.381Z,9.70
2023-04-07T19:28:15.191Z,9.68
2023-04-07T19:30:44.943Z,7.70
2023-04-07T19:33:14.878Z,9.65
2023-04-07T19:35:45.140Z,10.27
2023-04-07T19:38:15.024Z,10.73
2023-04-07T19:40:44.955Z,10.60
2023-04-07T19:43:16.596Z,8.55
2023-04-07T19:45:49.889Z,10.32
2023-04-07T19:48:19.615Z,10.95
2023-04-07T19:50:51.488Z,9.52
2023-04-07T19:53:22.168Z,9.43
2023-04-07T19:55:52.340Z,9.45
2023-04-07T19:58:23.519Z,9.23
2023-04-07T20:00:54.265Z,9.18
2023-04-07T20:03:24.598Z,9.15
2023-04-07T20:05:54.976Z,12.10
2023-04-07T20:08:24.572Z,7.72
2023-04-07T20:10:54.332Z,7.78
2023-04-07T20:13:24.363Z,9.07
2023-04-07T20:15:54.920Z,11.70
2023-04-07T20:18:25.063Z,11.75
2023-04-07T20:21:03.089Z,10.20
2023-04-07T20:23:34.554Z,10.57
2023-04-07T20:26:04.771Z,10.85
2023-04-07T20:28:33.153Z,9.38
2023-04-07T20:31:01.807Z,11.88
2023-04-07T20:33:29.950Z,12.98
2023-04-07T20:35:58.619Z,11.48
2023-04-07T20:38:26.782Z,11.55
2023-04-07T20:40:55.718Z,14.13
2023-04-07T20:43:23.975Z,11.20
2023-04-07T20:45:52.816Z,11.50
2023-04-07T20:48:24.167Z,11.93
2023-04-07T20:50:53.101Z,13.70
2023-04-07T20:53:20.989Z,11.93
2023-04-07T20:55:48.736Z,13.60
2023-04-07T20:58:18.677Z,14.82
2023-04-07T21:00:55.828Z,14.30
2023-04-07T21:03:28.853Z,16.08
2023-04-07T21:05:59.204Z,15.82
2023-04-07T21:08:29.435Z,14.88
2023-04-07T21:10:59.551Z,16.38
2023-04-07T21:13:29.359Z,19.58
2023-04-07T21:15:59.572Z,17.05
2023-04-07T21:18:27.681Z,15.63
2023-04-07T21:21:02.368Z,16.20
2023-04-07T21:23:31.893Z,15.73
2023-04-07T21:26:03.691Z,18.52
2023-04-07T21:28:32.791Z,19.88
2023-04-07T21:31:01.651Z,19.17
2023-04-07T21:33:29.799Z,14.98
2023-04-07T21:36:00.873Z,18.80
2023-04-07T21:38:31.289Z,18.75
2023-04-07T21:41:00.132Z,21.30
2023-04-07T21:43:29.972Z,19.52
2023-04-07T21:45:59.806Z,23.80
2023-04-07T21:48:30.623Z,20.70
2023-04-07T21:51:01.370Z,19.02
2023-04-07T21:53:30.216Z,22.40
2023-04-07T21:55:59.961Z,23.65
2023-04-07T21:58:29.827Z,21.55
2023-04-07T22:01:00.188Z,19.90
2023-04-07T22:03:30.742Z,24.02
2023-04-07T22:06:01.255Z,22.25
2023-04-07T22:08:31.634Z,22.60
2023-04-07T22:11:01.624Z,21.73
2023-04-07T22:13:31.782Z,19.77
2023-04-07T22:16:02.475Z,22.55
2023-04-07T22:18:33.346Z,23.23
2023-04-07T22:21:03.322Z,19.20
2023-04-07T22:23:33.082Z,22.98
2023-04-07T22:26:02.888Z,22.48
2023-04-07T22:28:32.680Z,21.60
2023-04-07T22:31:03.123Z,23.20
2023-04-07T22:33:33.623Z,20.40
2023-04-07T22:36:04.233Z,20.92
2023-04-07T22:38:34.054Z,25.70
2023-04-07T22:41:03.863Z,23.00
2023-04-07T22:43:33.633Z,20.80
2023-04-07T22:46:03.722Z,22.08
2023-04-07T22:48:33.375Z,26.45
2023-04-07T22:51:03.342Z,21.20
2023-04-07T22:53:33.265Z,21.10
2023-04-07T22:56:03.436Z,22.35
2023-04-07T22:58:33.045Z,23.98
2023-04-07T23:01:02.650Z,25.42
2023-04-07T23:03:32.740Z,23.05
2023-04-07T23:06:03.430Z,22.52
2023-04-07T23:08:33.064Z,24.75
2023-04-07T23:11:03.101Z,21.08
2023-04-07T23:13:33.365Z,21.42
2023-04-07T23:16:03.947Z,27.45
2023-04-07T23:18:34.122Z,26.70
2023-04-07T23:21:04.121Z,25.27
2023-04-07T23:23:36.756Z,28.63
2023-04-07T23:26:06.942Z,24.23
2023-04-07T23:28:37.158Z,28.55
2023-04-07T23:31:07.282Z,29.95
2023-04-07T23:33:36.956Z,26.17
2023-04-07T23:36:07.095Z,23.98
2023-04-07T23:38:39.275Z,28.42
2023-04-07T23:41:08.748Z,21.67
2023-04-07T23:43:38.095Z,26.90
2023-04-07T23:46:07.806Z,24.88
2023-04-07T23:48:37.550Z,23.20
2023-04-07T23:51:07.486Z,26.17
2023-04-07T23:53:37.036Z,25.00
2023-04-07T23:56:07.353Z,25.88
2023-04-07T23:58:37.458Z,22.35
